Time;durP1;ratioP1;P1;durP2;ratioP2;P2;SDS_P1;SDS_P2;PMS_P1;PMS_P2;Temp;Humidity;BMP_temperature;BMP_pressure;BME280_temperature;BME280_humidity;BME280_pressure;Samples;Min_cycle;Max_cycle;Signal;HPM_P1;HPM_P2
2021/06/04 00:01:22;;;;;;;4.20;3.80;;;18.70;95.70;;;;;;5094120;28;20176;-59
2021/06/04 00:03:48;;;;;;;3.87;3.53;;;18.70;95.90;;;;;;5094334;28;20173;-59
2021/06/04 00:06:14;;;;;;;3.77;3.47;;;18.60;96.10;;;;;;5093924;28;20257;-59
2021/06/04 00:08:41;;;;;;;5.13;4.20;;;18.50;96.10;;;;;;5094053;28;20174;-60
2021/06/04 00:11:15;;;;;;;4.10;3.70;;;18.50;96.20;;;;;;5093138;28;20166;-57
2021/06/04 00:13:52;;;;;;;4.20;3.80;;;18.50;96.40;;;;;;5094239;28;20213;-58
2021/06/04 00:16:22;;;;;;;3.80;3.50;;;18.30;96.40;;;;;;5093970;28;20234;-57
2021/06/04 00:18:49;;;;;;;4.40;3.30;;;18.40;96.30;;;;;;5094128;28;20185;-59
2021/06/04 00:21:21;;;;;;;3.37;3.17;;;18.30;96.10;;;;;;5093763;28;20170;-58
2021/06/04 00:23:47;;;;;;;3.90;3.60;;;18.30;96.20;;;;;;5094055;28;20177;-56
2021/06/04 00:26:14;;;;;;;4.27;3.87;;;18.30;96.20;;;;;;5093901;28;20170;-54
2021/06/04 00:28:40;;;;;;;3.90;3.60;;;18.20;96.10;;;;;;5093816;28;20171;-55
2021/06/04 00:31:06;;;;;;;5.67;3.50;;;18.20;96.10;;;;;;5093820;28;20182;-57
2021/06/04 00:33:31;;;;;;;5.17;4.00;;;18.20;96.40;;;;;;5093893;28;20170;-59
2021/06/04 00:35:57;;;;;;;3.90;3.50;;;18.90;96.80;;;;;;5094042;28;20169;-59
2021/06/04 00:38:23;;;;;;;3.63;3.10;;;18.20;96.40;;;;;;5092407;28;20218;-55
2021/06/04 00:40:53;;;;;;;3.30;3.10;;;18.20;96.40;;;;;;5093822;28;20170;-60
2021/06/04 00:43:20;;;;;;;5.50;3.57;;;18.10;96.30;;;;;;5093970;28;20515;-60
2021/06/04 00:45:49;;;;;;;4.30;3.90;;;18.10;96.40;;;;;;5093897;28;20185;-57
2021/06/04 00:48:16;;;;;;;5.97;3.60;;;18.00;96.40;;;;;;5093630;28;20204;-57
2021/06/04 00:51:00;;;;;;;3.83;3.53;;;18.00;96.40;;;;;;5094420;28;20211;-60
2021/06/04 00:53:26;;;;;;;4.00;3.60;;;18.00;96.50;;;;;;5093642;28;20269;-59
2021/06/04 00:55:54;;;;;;;4.73;3.33;;;18.00;96.60;;;;;;5093769;28;20208;-53
2021/06/04 00:58:24;;;;;;;3.90;3.50;;;17.90;96.70;;;;;;5093626;28;20316;-60
2021/06/04 01:00:53;;;;;;;3.27;3.07;;;18.00;96.90;;;;;;5093704;28;20205;-60
2021/06/04 01:03:22;;;;;;;4.17;3.77;;;17.90;96.90;;;;;;5093582;28;20243;-59
2021/06/04 01:05:48;;;;;;;3.93;3.63;;;17.80;96.80;;;;;;5093695;28;20170;-61
2021/06/04 01:08:22;;;;;;;3.87;3.47;;;17.80;96.90;;;;;;5093745;28;20280;-59
2021/06/04 01:10:54;;;;;;;4.43;3.70;;;17.80;97.00;;;;;;5093632;28;20203;-60
2021/06/04 01:13:32;;;;;;;3.80;3.50;;;17.70;97.00;;;;;;5093393;28;20503;-53
2021/06/04 01:16:19;;;;;;;5.53;3.50;;;17.70;97.00;;;;;;5093384;28;20256;-60
2021/06/04 01:19:16;;;;;;;3.83;3.33;;;17.60;97.20;;;;;;5093467;28;20193;-55
2021/06/04 01:21:56;;;;;;;4.10;3.27;;;17.60;97.10;;;;;;5094793;28;20173;-59
2021/06/04 01:24:49;;;;;;;3.57;3.27;;;17.50;97.10;;;;;;5097304;28;20260;-60
2021/06/04 01:27:23;;;;;;;3.70;3.40;;;17.50;97.30;;;;;;5097221;28;20198;-61
2021/06/04 01:29:54;;;;;;;3.90;3.50;;;17.50;97.50;;;;;;5097158;28;20199;-56
2021/06/04 01:32:30;;;;;;;3.90;3.20;;;17.40;97.60;;;;;;5097068;28;20162;-57
2021/06/04 01:35:05;;;;;;;4.27;3.20;;;17.40;97.70;;;;;;5096943;28;20197;-55
2021/06/04 01:37:33;;;;;;;3.70;3.40;;;17.40;97.70;;;;;;5096440;28;20213;-59
2021/06/04 01:40:05;;;;;;;3.60;3.30;;;17.30;97.80;;;;;;5096726;28;20162;-55
2021/06/04 01:42:36;;;;;;;4.53;3.40;;;17.30;97.80;;;;;;5096859;28;20165;-58
2021/06/04 01:45:14;;;;;;;4.43;3.63;;;17.30;97.80;;;;;;5096701;28;20166;-60
2021/06/04 01:47:43;;;;;;;3.90;3.50;;;17.30;97.80;;;;;;5096533;28;20764;-56
2021/06/04 01:50:19;;;;;;;3.93;3.53;;;17.20;97.80;;;;;;5096757;28;20174;-56
2021/06/04 01:52:45;;;;;;;3.93;3.60;;;17.10;97.90;;;;;;5096593;28;20260;-57
2021/06/04 01:55:37;;;;;;;4.87;3.60;;;17.10;98.00;;;;;;5096378;28;20587;-58
2021/06/04 01:58:37;;;;;;;5.00;3.60;;;17.10;98.00;;;;;;5091398;28;20734;-58
2021/06/04 02:01:20;;;;;;;3.80;3.50;;;17.10;98.10;;;;;;5053854;28;20186;-61
2021/06/04 02:03:46;;;;;;;5.93;3.57;;;17.00;98.20;;;;;;5054047;28;20179;-59
2021/06/04 02:06:12;;;;;;;4.17;3.77;;;17.00;98.30;;;;;;5053824;28;20714;-57
2021/06/04 02:08:46;;;;;;;3.93;3.47;;;17.00;98.40;;;;;;5054060;28;20225;-54
2021/06/04 02:11:15;;;;;;;3.63;3.37;;;17.00;98.50;;;;;;5053763;28;20179;-58
2021/06/04 02:13:44;;;;;;;4.00;3.60;;;16.90;98.50;;;;;;5054047;28;20663;-58
2021/06/04 02:16:31;;;;;;;4.50;3.60;;;16.90;98.50;;;;;;5053643;28;20172;-60
2021/06/04 02:19:04;;;;;;;4.57;3.90;;;16.80;98.70;;;;;;5053983;28;20186;-55
2021/06/04 02:21:35;;;;;;;4.10;3.70;;;16.80;98.80;;;;;;5053674;28;20225;-56
2021/06/04 02:24:27;;;;;;;3.53;3.23;;;16.80;98.70;;;;;;5054093;28;20183;-57
2021/06/04 02:27:02;;;;;;;3.93;3.43;;;16.80;98.80;;;;;;5053769;28;20281;-60
2021/06/04 02:29:33;;;;;;;4.17;3.63;;;16.80;98.80;;;;;;5053616;28;20182;-55
2021/06/04 02:32:25;;;;;;;3.77;3.30;;;16.70;98.80;;;;;;5053259;28;20183;-60
2021/06/04 02:35:01;;;;;;;4.07;3.60;;;16.60;98.90;;;;;;5052876;28;20183;-60
2021/06/04 02:37:42;;;;;;;3.83;3.47;;;16.60;98.90;;;;;;5076345;28;20209;-57
2021/06/04 02:40:17;;;;;;;3.83;3.53;;;16.60;99.00;;;;;;5095780;28;20169;-56
2021/06/04 02:42:53;;;;;;;4.20;3.80;;;16.60;99.00;;;;;;5095425;28;20235;-60
2021/06/04 02:45:36;;;;;;;5.57;3.43;;;16.60;99.00;;;;;;5095557;28;20187;-60
2021/06/04 02:48:08;;;;;;;4.33;3.93;;;16.60;99.10;;;;;;5095587;28;20189;-58
2021/06/04 02:50:56;;;;;;;3.70;3.40;;;16.60;99.00;;;;;;5095545;28;20178;-61
2021/06/04 02:53:28;;;;;;;4.63;3.40;;;16.60;99.10;;;;;;5095271;28;20166;-57
2021/06/04 02:56:09;;;;;;;3.90;3.50;;;16.50;99.10;;;;;;5095559;28;20241;-58
2021/06/04 02:58:35;;;;;;;3.83;3.40;;;16.60;99.30;;;;;;5095375;28;20178;-58
2021/06/04 03:01:01;;;;;;;4.73;3.47;;;16.60;99.40;;;;;;5095039;28;20219;-58
2021/06/04 03:03:27;;;;;;;4.10;3.40;;;16.60;99.70;;;;;;5095311;28;20212;-55
2021/06/04 03:05:53;;;;;;;5.27;3.57;;;16.50;99.70;;;;;;5095037;28;20193;-58
2021/06/04 03:08:21;;;;;;;3.60;3.30;;;16.50;99.70;;;;;;5095194;28;20197;-61
2021/06/04 03:10:48;;;;;;;3.90;3.50;;;16.40;99.90;;;;;;5095041;28;20268;-55
2021/06/04 03:13:22;;;;;;;4.00;3.70;;;16.50;99.70;;;;;;5094883;28;20193;-57
2021/06/04 03:15:57;;;;;;;4.47;3.70;;;16.30;99.60;;;;;;5095080;28;20189;-58
2021/06/04 03:18:29;;;;;;;5.27;3.97;;;16.40;99.80;;;;;;5094725;28;20288;-56
2021/06/04 03:20:56;;;;;;;4.50;3.90;;;16.30;99.80;;;;;;5094778;28;20162;-60
2021/06/04 03:23:35;;;;;;;5.37;3.53;;;16.30;99.90;;;;;;5095181;28;20252;-54
2021/06/04 03:26:01;;;;;;;3.80;3.50;;;16.30;99.90;;;;;;5094902;28;20166;-60
2021/06/04 03:28:27;;;;;;;4.70;3.30;;;16.30;99.80;;;;;;5094821;28;20640;-57
2021/06/04 03:30:54;;;;;;;3.73;3.40;;;16.30;99.90;;;;;;5094481;28;20241;-59
2021/06/04 03:33:24;;;;;;;4.73;3.77;;;16.30;99.80;;;;;;5094639;28;20174;-58
2021/06/04 03:35:50;;;;;;;4.57;3.93;;;16.30;99.90;;;;;;5094794;28;20208;-54
2021/06/04 03:38:17;;;;;;;4.83;3.63;;;16.30;99.90;;;;;;5094277;28;20267;-55
2021/06/04 03:40:43;;;;;;;3.60;3.30;;;16.30;99.90;;;;;;5094620;28;20214;-60
2021/06/04 03:43:12;;;;;;;6.67;3.70;;;16.30;99.90;;;;;;5094246;28;20260;-52
2021/06/04 03:45:39;;;;;;;4.00;3.33;;;16.30;99.90;;;;;;5094295;28;20158;-60
2021/06/04 03:48:08;;;;;;;4.03;3.50;;;16.30;99.90;;;;;;5094310;28;20632;-57
2021/06/04 03:50:34;;;;;;;3.83;3.30;;;16.30;99.90;;;;;;5094338;28;20314;-58
2021/06/04 03:53:00;;;;;;;4.23;3.83;;;16.30;99.90;;;;;;5094219;28;20170;-55
2021/06/04 03:55:28;;;;;;;4.43;3.50;;;16.30;99.90;;;;;;5094438;28;20181;-59
2021/06/04 03:57:54;;;;;;;4.27;3.20;;;16.30;99.90;;;;;;5094056;28;20546;-60
2021/06/04 04:00:29;;;;;;;3.70;3.40;;;16.20;99.90;;;;;;5094431;28;20248;-60
2021/06/04 04:02:55;;;;;;;4.53;3.90;;;16.20;99.90;;;;;;5094318;28;20173;-59
2021/06/04 04:05:22;;;;;;;4.57;3.80;;;16.20;99.90;;;;;;5094324;28;20621;-59
2021/06/04 04:07:48;;;;;;;3.70;3.40;;;16.30;99.90;;;;;;5093936;28;20186;-56
2021/06/04 04:10:15;;;;;;;4.00;3.60;;;16.30;99.90;;;;;;5094265;28;20534;-59
2021/06/04 04:12:41;;;;;;;5.17;3.70;;;16.30;99.90;;;;;;5094116;28;20256;-59
2021/06/04 04:15:17;;;;;;;4.30;3.43;;;16.30;99.90;;;;;;5094330;28;20201;-60
2021/06/04 04:17:46;;;;;;;4.60;3.60;;;16.40;99.90;;;;;;5093980;28;20213;-57
2021/06/04 04:20:14;;;;;;;3.90;3.57;;;16.40;99.90;;;;;;5094116;28;20165;-58
2021/06/04 04:22:39;;;;;;;5.90;3.70;;;16.40;99.90;;;;;;5093637;28;20706;-55
2021/06/04 04:25:07;;;;;;;4.17;3.23;;;16.50;99.90;;;;;;5094050;28;20260;-60
2021/06/04 04:27:33;;;;;;;3.90;3.60;;;16.50;99.90;;;;;;5093837;28;20189;-59
2021/06/04 04:29:59;;;;;;;4.90;3.77;;;16.60;99.90;;;;;;5093950;28;20230;-58
2021/06/04 04:32:25;;;;;;;4.10;3.33;;;16.60;99.90;;;;;;5093788;28;20345;-60
2021/06/04 04:34:50;;;;;;;3.90;3.50;;;16.70;99.90;;;;;;5094025;28;20173;-56
2021/06/04 04:37:16;;;;;;;6.13;3.33;;;16.80;99.90;;;;;;5093669;28;20202;-60
2021/06/04 04:39:45;;;;;;;4.00;3.60;;;16.80;99.90;;;;;;5094212;28;20184;-56
2021/06/04 04:42:14;;;;;;;4.70;3.53;;;16.80;99.90;;;;;;5093836;28;20170;-54
2021/06/04 04:44:42;;;;;;;5.23;3.70;;;16.90;99.90;;;;;;5093762;28;20680;-60
2021/06/04 04:47:11;;;;;;;3.50;3.20;;;16.90;99.90;;;;;;5093750;28;20665;-57
2021/06/04 04:49:37;;;;;;;4.03;3.67;;;17.10;99.90;;;;;;5093840;28;20170;-59
2021/06/04 04:52:11;;;;;;;5.03;3.77;;;17.10;99.90;;;;;;5093428;28;20550;-55
2021/06/04 04:54:48;;;;;;;4.03;3.63;;;17.20;99.90;;;;;;5093860;28;20230;-58
2021/06/04 04:57:15;;;;;;;4.10;3.50;;;17.30;99.90;;;;;;5096011;28;20209;-57
2021/06/04 04:59:41;;;;;;;3.80;3.50;;;17.30;99.90;;;;;;5097720;28;20279;-61
2021/06/04 05:02:07;;;;;;;3.63;3.33;;;17.40;99.90;;;;;;5097400;28;20265;-59
2021/06/04 05:04:33;;;;;;;3.90;3.30;;;17.40;99.90;;;;;;5097437;28;20258;-57
2021/06/04 05:06:59;;;;;;;4.43;3.47;;;17.40;99.90;;;;;;5097351;28;20540;-59
2021/06/04 05:09:25;;;;;;;4.03;3.30;;;17.50;99.90;;;;;;5097489;28;20736;-57
2021/06/04 05:11:51;;;;;;;4.80;3.83;;;17.50;99.90;;;;;;5097323;28;20170;-59
2021/06/04 05:14:18;;;;;;;3.90;3.60;;;17.60;99.90;;;;;;5097525;28;20178;-56
2021/06/04 05:16:44;;;;;;;4.17;3.57;;;17.60;99.90;;;;;;5097098;28;20561;-59
2021/06/04 05:19:10;;;;;;;4.30;3.60;;;17.80;99.90;;;;;;5097177;28;20184;-57
2021/06/04 05:21:36;;;;;;;3.63;3.23;;;17.90;99.90;;;;;;5096876;28;20253;-59
2021/06/04 05:24:04;;;;;;;4.50;3.43;;;18.00;99.90;;;;;;5097246;28;20240;-61
2021/06/04 05:26:29;;;;;;;3.70;3.40;;;18.00;99.90;;;;;;5096971;28;20273;-58
2021/06/04 05:28:55;;;;;;;4.43;3.27;;;18.00;99.90;;;;;;5097092;28;20580;-58
2021/06/04 05:31:20;;;;;;;3.43;3.03;;;18.10;99.90;;;;;;5096757;28;20531;-60
2021/06/04 05:33:49;;;;;;;4.83;3.17;;;18.20;99.90;;;;;;5096934;28;20224;-59
2021/06/04 05:36:23;;;;;;;4.90;3.30;;;18.30;99.90;;;;;;5096878;28;20190;-59
2021/06/04 05:38:49;;;;;;;3.60;3.30;;;18.40;99.90;;;;;;5096913;28;20187;-59
2021/06/04 05:41:16;;;;;;;3.67;3.33;;;18.40;99.90;;;;;;5096709;28;20315;-61
2021/06/04 05:43:42;;;;;;;4.17;3.70;;;18.50;99.90;;;;;;5097079;28;20201;-55
2021/06/04 05:46:14;;;;;;;5.73;3.50;;;19.00;99.90;;;;;;5096842;28;20185;-56
2021/06/04 05:48:40;;;;;;;3.70;3.40;;;18.60;99.90;;;;;;5096807;28;20207;-59
2021/06/04 05:51:12;;;;;;;5.97;5.13;;;18.60;99.90;;;;;;5096350;28;20550;-57
2021/06/04 05:53:38;;;;;;;7.03;6.07;;;18.60;99.90;;;;;;5096567;28;20175;-61
2021/06/04 05:56:06;;;;;;;5.23;4.73;;;18.60;99.90;;;;;;5096536;28;20180;-60
2021/06/04 05:58:32;;;;;;;5.80;5.30;;;18.50;99.90;;;;;;5096211;28;20206;-61
2021/06/04 06:01:00;;;;;;;5.30;4.80;;;18.60;99.90;;;;;;5096411;28;20175;-56
2021/06/04 06:03:31;;;;;;;5.93;5.33;;;18.50;99.90;;;;;;5096830;28;20203;-56
2021/06/04 06:05:57;;;;;;;6.53;5.20;;;18.50;99.90;;;;;;5096405;28;20184;-60
2021/06/04 06:08:23;;;;;;;5.90;5.40;;;18.60;99.90;;;;;;5095059;28;20238;-60
2021/06/04 06:10:49;;;;;;;6.93;6.23;;;18.70;99.90;;;;;;5096336;28;20190;-58
2021/06/04 06:13:15;;;;;;;7.60;6.90;;;18.80;99.90;;;;;;5096268;28;20183;-60
2021/06/04 06:15:41;;;;;;;7.60;6.90;;;19.00;99.90;;;;;;5096326;28;20185;-61
2021/06/04 06:18:08;;;;;;;9.17;7.13;;;19.10;99.90;;;;;;5096101;28;20255;-55
2021/06/04 06:20:37;;;;;;;7.27;6.53;;;19.20;99.90;;;;;;5096163;28;20587;-56
2021/06/04 06:23:03;;;;;;;7.73;5.47;;;19.40;99.90;;;;;;5095946;28;20610;-56
2021/06/04 06:25:32;;;;;;;6.10;5.07;;;19.50;99.90;;;;;;5096034;28;20637;-59
2021/06/04 06:27:58;;;;;;;5.17;4.67;;;19.60;99.90;;;;;;5096008;28;20197;-57
2021/06/04 06:30:27;;;;;;;4.80;4.30;;;19.70;99.90;;;;;;5095912;28;20523;-56
2021/06/04 06:32:53;;;;;;;4.50;4.10;;;19.80;99.90;;;;;;5095754;28;20218;-58
2021/06/04 06:35:27;;;;;;;4.97;3.87;;;20.00;99.90;;;;;;5095718;28;20216;-60
2021/06/04 06:37:52;;;;;;;4.50;4.10;;;20.10;99.90;;;;;;5095375;28;20220;-58
2021/06/04 06:40:18;;;;;;;5.43;4.60;;;20.20;99.90;;;;;;5095622;28;20186;-56
2021/06/04 06:42:44;;;;;;;4.67;4.27;;;20.30;99.90;;;;;;5095440;28;20180;-59
2021/06/04 06:45:11;;;;;;;4.57;4.10;;;20.30;99.90;;;;;;5095611;28;20227;-59
2021/06/04 06:47:38;;;;;;;4.43;4.03;;;20.40;99.90;;;;;;5095387;28;20331;-60
2021/06/04 06:50:07;;;;;;;4.47;4.07;;;20.40;99.90;;;;;;5095514;28;20614;-59
2021/06/04 06:52:33;;;;;;;4.33;3.93;;;20.30;99.90;;;;;;5093619;28;20649;-59
2021/06/04 06:54:59;;;;;;;4.63;4.07;;;20.30;99.90;;;;;;5095098;28;20529;-58
2021/06/04 06:57:25;;;;;;;4.50;3.77;;;20.40;99.90;;;;;;5094999;28;20217;-59
2021/06/04 06:59:50;;;;;;;3.90;3.50;;;20.60;99.90;;;;;;5095197;28;20568;-57
2021/06/04 07:02:18;;;;;;;4.03;3.63;;;20.80;99.90;;;;;;5094867;28;20205;-60
2021/06/04 07:04:44;;;;;;;4.50;4.00;;;21.00;99.90;;;;;;5095103;28;20170;-60
2021/06/04 07:07:10;;;;;;;5.83;3.97;;;21.10;99.30;;;;;;5094793;28;20205;-53
2021/06/04 07:09:35;;;;;;;4.60;4.20;;;21.30;99.30;;;;;;5094907;28;20186;-60
2021/06/04 07:12:01;;;;;;;4.97;4.57;;;21.40;99.90;;;;;;5094755;28;20220;-60
2021/06/04 07:14:31;;;;;;;4.67;4.20;;;21.50;99.90;;;;;;5095210;28;20270;-56
2021/06/04 07:16:56;;;;;;;5.17;4.67;;;21.60;99.90;;;;;;5094641;28;20289;-59
2021/06/04 07:19:22;;;;;;;4.47;4.07;;;21.50;99.90;;;;;;5094553;28;20193;-59
2021/06/04 07:21:48;;;;;;;4.38;3.97;;;21.50;99.90;;;;;;5094611;28;20172;-60
2021/06/04 07:24:14;;;;;;;4.45;4.07;;;21.60;99.90;;;;;;5094607;28;20174;-58
2021/06/04 07:26:46;;;;;;;5.10;4.70;;;21.60;99.90;;;;;;5094781;28;20202;-58
2021/06/04 07:29:13;;;;;;;4.78;4.28;;;21.70;99.90;;;;;;5094800;28;20174;-59
2021/06/04 07:31:39;;;;;;;4.97;4.57;;;21.70;99.90;;;;;;5094460;28;20580;-60
2021/06/04 07:34:05;;;;;;;4.30;4.00;;;21.60;99.90;;;;;;5094593;28;20633;-61
2021/06/04 07:36:37;;;;;;;5.85;4.65;;;21.60;99.90;;;;;;5094186;28;20197;-60
2021/06/04 07:39:06;;;;;;;4.88;4.47;;;21.50;99.90;;;;;;5094375;28;20189;-61
2021/06/04 07:41:32;;;;;;;5.33;4.33;;;21.30;99.90;;;;;;5094153;28;20224;-56
2021/06/04 07:43:58;;;;;;;5.68;5.18;;;21.30;99.90;;;;;;5094582;28;20257;-58
2021/06/04 07:46:26;;;;;;;5.55;4.50;;;21.20;99.90;;;;;;5094296;28;20240;-60
2021/06/04 07:48:53;;;;;;;5.00;4.50;;;21.20;99.90;;;;;;5094329;28;20178;-60
2021/06/04 07:51:26;;;;;;;5.93;4.53;;;21.30;99.90;;;;;;5094410;28;20170;-60
2021/06/04 07:53:51;;;;;;;7.30;4.43;;;21.40;99.90;;;;;;5094402;28;20181;-60
2021/06/04 07:56:18;;;;;;;5.93;4.40;;;21.50;99.90;;;;;;5094220;28;20216;-60
2021/06/04 07:58:46;;;;;;;4.72;4.20;;;21.60;99.90;;;;;;5094323;28;20530;-58
2021/06/04 08:01:13;;;;;;;5.60;4.70;;;21.70;99.90;;;;;;5094021;28;20181;-56
2021/06/04 08:03:39;;;;;;;5.97;4.80;;;21.40;99.90;;;;;;5094111;28;20173;-53
2021/06/04 08:06:06;;;;;;;5.22;4.78;;;21.70;99.90;;;;;;5094002;28;20175;-59
2021/06/04 08:08:33;;;;;;;4.90;4.50;;;21.90;99.90;;;;;;5094189;28;20526;-60
2021/06/04 08:10:59;;;;;;;4.95;4.55;;;22.00;99.90;;;;;;5094342;28;20181;-61
2021/06/04 08:13:25;;;;;;;4.95;4.32;;;22.10;99.90;;;;;;5094134;28;20184;-58
2021/06/04 08:16:01;;;;;;;4.70;4.30;;;22.10;99.90;;;;;;5093902;28;20188;-56
2021/06/04 08:18:31;;;;;;;4.80;4.40;;;22.30;99.90;;;;;;5093905;28;20264;-59
2021/06/04 08:20:57;;;;;;;5.30;4.80;;;22.50;99.90;;;;;;5093997;28;20253;-60
2021/06/04 08:23:35;;;;;;;5.85;4.88;;;22.70;99.90;;;;;;5094078;28;20258;-59
2021/06/04 08:26:03;;;;;;;5.35;4.50;;;22.90;99.90;;;;;;5093947;28;20537;-54
2021/06/04 08:28:29;;;;;;;5.18;4.57;;;23.00;99.50;;;;;;5094006;28;20561;-61
2021/06/04 08:30:55;;;;;;;5.28;4.50;;;23.10;99.70;;;;;;5094059;28;20205;-60
2021/06/04 08:33:30;;;;;;;4.80;4.25;;;23.20;99.30;;;;;;5098233;28;20177;-59
2021/06/04 08:35:57;;;;;;;5.28;4.78;;;23.40;98.90;;;;;;5098067;28;20497;-57
2021/06/04 08:38:24;;;;;;;5.38;4.35;;;23.50;98.90;;;;;;5097756;28;20209;-59
2021/06/04 08:40:50;;;;;;;5.05;4.65;;;23.40;99.80;;;;;;5097995;28;20176;-56
2021/06/04 08:43:29;;;;;;;4.93;4.50;;;23.50;99.30;;;;;;5097807;28;20166;-57
2021/06/04 08:46:04;;;;;;;4.93;4.50;;;23.60;99.90;;;;;;5098101;28;20184;-59
2021/06/04 08:48:58;;;;;;;6.22;4.53;;;23.60;99.90;;;;;;5098020;28;20177;-56
2021/06/04 08:51:33;;;;;;;4.40;4.00;;;23.50;99.50;;;;;;5097801;28;20178;-55
2021/06/04 08:54:30;;;;;;;5.03;4.55;;;23.60;99.90;;;;;;5097918;28;20260;-55
2021/06/04 08:57:31;;;;;;;4.72;4.10;;;23.70;98.80;;;;;;5097627;28;20247;-54
2021/06/04 08:59:58;;;;;;;4.97;4.47;;;23.80;99.90;;;;;;5055480;28;20279;-55
2021/06/04 09:02:41;;;;;;;4.32;3.92;;;23.70;99.90;;;;;;5055069;28;20171;-58
2021/06/04 09:05:19;;;;;;;4.32;3.95;;;23.80;99.70;;;;;;5055299;28;20214;-57
2021/06/04 09:07:47;;;;;;;4.53;4.10;;;24.00;99.90;;;;;;5055117;28;20226;-60
2021/06/04 09:10:50;;;;;;;4.70;4.30;;;24.20;99.90;;;;;;5054976;28;20241;-55
2021/06/04 09:13:20;;;;;;;5.15;4.10;;;24.40;99.50;;;;;;5054964;28;20202;-60
2021/06/04 09:15:47;;;;;;;7.20;4.60;;;24.60;99.00;;;;;;5055085;28;20179;-59
2021/06/04 09:18:24;;;;;;;4.35;4.03;;;24.60;99.90;;;;;;5054688;28;20215;-58
2021/06/04 09:20:55;;;;;;;4.93;4.05;;;24.60;98.60;;;;;;5055110;28;20202;-59
2021/06/04 09:23:37;;;;;;;4.20;3.90;;;25.00;99.50;;;;;;5055013;28;20208;-55
2021/06/04 09:26:04;;;;;;;4.38;3.97;;;25.20;99.40;;;;;;5054703;28;20261;-57
2021/06/04 09:29:09;;;;;;;6.72;4.18;;;25.30;98.50;;;;;;5054845;28;20222;-59
2021/06/04 09:31:42;;;;;;;4.32;3.67;;;25.50;95.60;;;;;;5054028;28;20202;-60
2021/06/04 09:34:31;;;;;;;4.50;3.83;;;25.60;98.10;;;;;;5054690;28;20183;-60
2021/06/04 09:36:59;;;;;;;6.75;4.13;;;25.80;98.30;;;;;;5082282;28;20266;-60
2021/06/04 09:39:27;;;;;;;4.95;3.80;;;25.70;98.80;;;;;;5096751;28;20230;-61
2021/06/04 09:42:06;;;;;;;4.15;3.75;;;25.50;97.70;;;;;;5096458;28;20178;-56
2021/06/04 09:44:33;;;;;;;4.25;3.92;;;25.40;98.50;;;;;;5096839;28;20177;-57
2021/06/04 09:47:12;;;;;;;4.72;4.20;;;25.40;97.30;;;;;;5096851;28;20194;-60
2021/06/04 09:49:41;;;;;;;4.30;3.90;;;25.30;98.80;;;;;;5096588;28;20638;-60
2021/06/04 09:52:21;;;;;;;4.25;3.85;;;25.30;96.50;;;;;;5096500;28;20177;-61
2021/06/04 09:55:00;;;;;;;4.57;4.18;;;25.50;96.00;;;;;;5096732;28;20174;-60
2021/06/04 09:57:25;;;;;;;7.60;4.30;;;25.70;96.70;;;;;;5096496;28;20237;-59
2021/06/04 09:59:51;;;;;;;4.50;4.10;;;25.60;96.70;;;;;;5096616;28;20169;-59
2021/06/04 10:02:30;;;;;;;6.55;3.88;;;25.30;98.00;;;;;;5096331;28;20199;-53
2021/06/04 10:05:15;;;;;;;6.28;4.05;;;25.20;97.90;;;;;;5096506;28;20249;-56
2021/06/04 10:07:41;;;;;;;4.35;3.95;;;25.40;95.80;;;;;;5096450;28;20225;-59
2021/06/04 10:10:13;;;;;;;5.15;3.80;;;25.50;97.20;;;;;;5096245;28;20177;-58
2021/06/04 10:12:44;;;;;;;4.32;3.75;;;25.60;96.20;;;;;;5095941;28;20188;-59
2021/06/04 10:15:41;;;;;;;4.47;3.78;;;25.80;96.90;;;;;;5096369;28;20177;-60
2021/06/04 10:18:32;;;;;;;4.07;3.60;;;26.10;97.50;;;;;;5095945;28;20206;-58
2021/06/04 10:21:15;;;;;;;4.30;2.75;;;26.40;97.80;;;;;;5095981;28;20272;-60
2021/06/04 10:23:45;;;;;;;3.40;3.10;;;26.50;90.80;;;;;;5095941;28;20178;-59
2021/06/04 10:26:33;;;;;;;4.63;3.17;;;26.60;91.20;;;;;;5095994;28;20182;-60
2021/06/04 10:29:13;;;;;;;3.22;2.92;;;26.70;91.10;;;;;;5096072;28;20205;-60
2021/06/04 10:31:57;;;;;;;3.90;2.90;;;26.70;90.80;;;;;;5095689;28;20629;-57
2021/06/04 10:34:37;;;;;;;3.90;3.10;;;26.90;90.40;;;;;;5096033;28;20212;-59
2021/06/04 10:37:08;;;;;;;3.60;3.30;;;27.10;91.70;;;;;;5095486;28;20212;-58
2021/06/04 10:39:54;;;;;;;3.45;3.15;;;27.30;91.50;;;;;;5095795;28;20174;-60
2021/06/04 10:42:41;;;;;;;3.92;3.00;;;27.30;91.40;;;;;;5095672;28;20260;-58
2021/06/04 10:45:16;;;;;;;3.15;2.83;;;27.30;91.70;;;;;;5095546;28;20257;-60
2021/06/04 10:48:00;;;;;;;4.45;3.10;;;27.20;91.40;;;;;;5095427;28;20202;-52
2021/06/04 10:50:31;;;;;;;3.60;3.30;;;27.10;89.80;;;;;;5095606;28;20523;-60
2021/06/04 10:53:14;;;;;;;3.03;2.72;;;26.90;86.30;;;;;;5095382;28;20174;-57
2021/06/04 10:55:48;;;;;;;3.10;2.90;;;27.20;88.80;;;;;;5094716;28;20181;-58
2021/06/04 10:58:44;;;;;;;3.17;2.85;;;27.20;86.20;;;;;;5095376;28;20661;-60
2021/06/04 11:01:17;;;;;;;3.22;2.63;;;27.30;91.40;;;;;;5095103;28;20701;-59
2021/06/04 11:03:59;;;;;;;2.83;2.30;;;27.30;88.60;;;;;;5095457;28;20170;-59
2021/06/04 11:06:34;;;;;;;2.80;2.50;;;27.10;90.00;;;;;;5095307;28;20246;-59
2021/06/04 11:09:22;;;;;;;2.13;2.03;;;27.00;89.30;;;;;;5095545;28;20644;-60
2021/06/04 11:12:12;;;;;;;2.72;2.40;;;27.20;82.60;;;;;;5095105;28;20170;-58
2021/06/04 11:15:00;;;;;;;2.20;2.10;;;27.30;77.30;;;;;;5095172;28;20166;-58
2021/06/04 11:17:42;;;;;;;1.80;1.70;;;27.40;83.00;;;;;;5094969;28;20205;-61
2021/06/04 11:20:10;;;;;;;2.42;2.20;;;27.30;77.10;;;;;;5095162;28;20202;-55
2021/06/04 11:22:44;;;;;;;2.30;2.10;;;27.40;74.30;;;;;;5094907;28;20177;-58
2021/06/04 11:25:28;;;;;;;1.98;1.77;;;27.50;74.80;;;;;;5094978;28;20166;-59
2021/06/04 11:28:20;;;;;;;1.90;1.80;;;27.50;71.30;;;;;;5094625;28;20681;-58
2021/06/04 11:31:01;;;;;;;1.70;1.60;;;27.60;67.80;;;;;;5094756;28;20185;-60
2021/06/04 11:33:31;;;;;;;1.70;1.52;;;27.80;66.90;;;;;;5094654;28;20532;-58
2021/06/04 11:36:30;;;;;;;1.63;1.52;;;28.00;66.00;;;;;;5094769;28;20518;-59
2021/06/04 11:39:06;;;;;;;2.75;1.90;;;28.20;72.40;;;;;;5050967;28;20203;-57
2021/06/04 11:41:32;;;;;;;1.63;1.52;;;28.20;67.40;;;;;;5052216;28;20626;-59
2021/06/04 11:44:15;;;;;;;3.10;1.92;;;28.10;77.80;;;;;;5052192;28;20179;-59
2021/06/04 11:46:41;;;;;;;1.75;1.65;;;28.10;70.40;;;;;;5050923;28;20686;-59
2021/06/04 11:49:09;;;;;;;1.60;1.50;;;28.10;71.60;;;;;;5051671;28;20179;-58
2021/06/04 11:51:36;;;;;;;2.97;1.67;;;28.20;65.20;;;;;;5052162;28;20262;-60
2021/06/04 11:54:29;;;;;;;1.83;1.63;;;28.50;68.70;;;;;;5051765;28;20167;-61
2021/06/04 11:57:11;;;;;;;1.80;1.70;;;28.70;65.80;;;;;;5051932;28;20303;-60
2021/06/04 11:59:45;;;;;;;1.80;1.70;;;28.90;68.40;;;;;;5051966;28;20535;-59
2021/06/04 12:02:26;;;;;;;2.13;1.90;;;29.20;71.90;;;;;;5051517;28;20241;-61
2021/06/04 12:05:12;;;;;;;2.10;1.90;;;29.50;73.00;;;;;;5052035;28;20183;-59
2021/06/04 12:07:46;;;;;;;1.67;1.58;;;29.60;64.10;;;;;;5051815;28;20214;-60
2021/06/04 12:10:34;;;;;;;1.60;1.50;;;29.60;63.70;;;;;;5051962;28;20232;-61
2021/06/04 12:13:00;;;;;;;1.95;1.85;;;29.60;60.30;;;;;;5051635;28;20321;-56
2021/06/04 12:15:38;;;;;;;3.40;1.83;;;29.70;63.40;;;;;;5089380;28;20212;-60
2021/06/04 12:18:31;;;;;;;2.28;1.63;;;29.60;64.70;;;;;;5093840;28;20203;-60
2021/06/04 12:20:56;;;;;;;1.73;1.63;;;29.50;59.60;;;;;;5094260;28;20200;-57
2021/06/04 12:23:49;;;;;;;3.22;1.67;;;29.50;69.80;;;;;;5094212;28;20170;-59
2021/06/04 12:26:36;;;;;;;2.92;1.85;;;29.40;66.60;;;;;;5094062;28;20269;-60
2021/06/04 12:29:20;;;;;;;2.72;1.90;;;29.30;67.10;;;;;;5094050;28;20174;-57
2021/06/04 12:31:53;;;;;;;1.70;1.60;;;28.90;73.20;;;;;;5093796;28;20219;-58
2021/06/04 12:34:40;;;;;;;1.83;1.73;;;28.80;62.70;;;;;;5093778;28;20261;-58
2021/06/04 12:37:13;;;;;;;2.45;1.67;;;28.90;64.40;;;;;;5093774;28;20250;-60
2021/06/04 12:40:08;;;;;;;3.17;2.05;;;29.00;64.90;;;;;;5093949;28;20170;-60
2021/06/04 12:42:54;;;;;;;2.50;2.00;;;29.00;69.80;;;;;;5093535;28;20173;-58
2021/06/04 12:45:24;;;;;;;2.03;1.92;;;28.80;65.20;;;;;;5093946;28;20219;-60
2021/06/04 12:48:06;;;;;;;2.13;1.63;;;28.70;59.80;;;;;;5093660;28;20198;-59
2021/06/04 12:50:41;;;;;;;2.17;1.98;;;28.80;61.00;;;;;;5093891;28;20178;-60
2021/06/04 12:53:27;;;;;;;2.85;1.92;;;28.90;70.30;;;;;;5093511;28;20174;-59
2021/06/04 12:55:59;;;;;;;1.90;1.80;;;29.00;68.20;;;;;;5093822;28;20174;-58
2021/06/04 12:58:32;;;;;;;1.90;1.80;;;29.00;64.60;;;;;;5093814;28;20704;-61
2021/06/04 13:01:13;;;;;;;3.85;2.20;;;29.00;63.20;;;;;;5093631;28;20175;-61
2021/06/04 13:03:55;;;;;;;2.50;2.30;;;29.10;64.60;;;;;;5093836;28;20158;-59
2021/06/04 13:06:39;;;;;;;3.38;2.20;;;29.00;62.40;;;;;;5093577;28;20231;-55
2021/06/04 13:09:06;;;;;;;2.22;2.03;;;29.00;62.80;;;;;;5093749;28;20174;-59
2021/06/04 13:11:42;;;;;;;3.90;2.10;;;29.10;61.30;;;;;;5093488;28;20166;-60
2021/06/04 13:14:20;;;;;;;2.53;2.30;;;29.20;66.10;;;;;;5093739;28;20174;-60
2021/06/04 13:16:47;;;;;;;4.35;2.13;;;29.30;60.80;;;;;;5093417;28;20186;-59